Friday, November 17, 2017, 2:34 PM EST
Back to Local

KHGR, Hagerstown Regional Airport

Location: Hagerstown, MD, United States Lat: 39.7
Local Time: 2:34 PM EST (19:34 GMT) Lon: -77.733
Time Zone: US/Eastern Elev: 705 ft

Show me the last for .
Show Decoded

2017-11-17 13:53 METAR KHGR 171853Z VRB04KT 10SM CLR 11/M03 A3016 RMK AO2 SLP225 T01061028 =
2017-11-17 12:53 METAR KHGR 171753Z 31006KT 10SM CLR 09/M03 A3016 RMK AO2 SLP227 T00941028 10094
                 20033 58022 =
2017-11-17 11:53 METAR KHGR 171653Z 32009KT 10SM CLR 09/M02 A3019 RMK AO2 SLP238 T00891022 =
2017-11-17 10:53 METAR KHGR 171553Z 30012KT 10SM CLR 07/M02 A3023 RMK AO2 SLP249 T00721022 =
2017-11-17 09:53 METAR KHGR 171453Z 30011G19KT 10SM CLR 06/M03 A3023 RMK AO2 SLP249 T00611028
                 51015 =
2017-11-17 08:53 METAR KHGR 171353Z 31015KT 10SM CLR 05/M02 A3022 RMK AO2 SLP246 T00501022 =
2017-11-17 07:53 METAR KHGR 171253Z 30006KT 10SM FEW040 04/M02 A3021 RMK AO2 SLP243 T00391022 =
2017-11-17 06:53 METAR KHGR 171153Z 31013KT 10SM SCT032 03/M02 A3018 RMK AO2 SLP235 T00331022
                 10061 20033 53022 =
2017-11-17 05:53 METAR KHGR 171053Z AUTO 31012KT 10SM FEW035 03/M01 A3015 RMK AO2 SLP223
                 T00331011 TSNO =
2017-11-17 04:53 METAR KHGR 170953Z AUTO 00000KT 10SM OVC033 05/M01 A3014 RMK AO2 SLP219
                 T00501011 TSNO =
2017-11-17 03:53 METAR KHGR 170853Z AUTO 30009KT 10SM BKN037 05/M01 A3012 RMK AO2 SLP211
                 T00501011 53005 TSNO =
2017-11-17 02:53 METAR KHGR 170753Z AUTO 31016KT 10SM CLR 06/M01 A3010 RMK AO2 PK WND 30028/0724
                 SLP206 T00561011 TSNO =
2017-11-17 01:53 METAR KHGR 170653Z AUTO 31013KT 10SM OVC038 06/M02 A3011 RMK AO2 SLP208
                 T00611017 TSNO =
2017-11-17 00:53 METAR KHGR 170553Z 28007KT 10SM OVC040 06/M02 A3010 RMK AO2 SLP205 T00611017
                 10072 20061 53008 =
2017-11-16 23:53 METAR KHGR 170453Z 30012G21KT 10SM OVC040 06/M02 A3008 RMK AO2 PK WND 28027/0439
                 SLP198 T00611017 401440039 =
2017-11-16 21:53 METAR KHGR 170253Z 29019KT 10SM OVC041 07/M02 A3008 RMK AO2 SLP197 T00671017
                 50005 =
2017-11-16 20:53 METAR KHGR 170153Z 30017G24KT 10SM OVC040 07/M01 A3008 RMK AO2 SLP199 T00671011
                 =
2017-11-16 19:53 METAR KHGR 170053Z 30012KT 10SM OVC039 07/M02 A3007 RMK AO2 PK WND 31027/2354
                 SLP195 T00671017 =
2017-11-16 18:53 METAR KHGR 162353Z 31022G28KT 10SM OVC037 07/M01 A3006 RMK AO2 PK WND 30028/2352
                 SLP194 T00671011 10128 20067 51030 =
2017-11-16 17:53 METAR KHGR 162253Z 32014G21KT 10SM OVC037 07/M01 A3004 RMK AO2 SLP185 T00721006
                 =
2017-11-16 16:53 METAR KHGR 162153Z 33010G19KT 10SM OVC036 08/00 A3001 RMK AO2 SLP177 T00780000 =
2017-11-16 15:53 METAR KHGR 162053Z 31017G23KT 10SM BKN045 BKN050 09/00 A2997 RMK AO2 PK WND
                 30027/1957 SLP160 T00940000 53029 =
2017-11-16 14:53 METAR KHGR 161953Z 28021G27KT 10SM SCT055 12/M01 A2993 RMK AO2 PK WND 30028/1854
                 SLP146 T01171006 =

Support USWX by starting your Amazon purchase here.